Time;durP1;ratioP1;P1;durP2;ratioP2;P2;SDS_P1;SDS_P2;PMS_P1;PMS_P2;Temp;Humidity;BMP_temperature;BMP_pressure;BME280_temperature;BME280_humidity;BME280_pressure;Samples;Min_cycle;Max_cycle;Signal;HPM_P1;HPM_P2
2021/08/21 00:01:19;;;;;;;17.35;11.73;;;20.20;76.70;;;;;;5056342;28;20250;-87
2021/08/21 00:03:45;;;;;;;18.13;12.00;;;20.10;76.40;;;;;;5056683;28;20185;-88
2021/08/21 00:06:11;;;;;;;20.37;12.10;;;20.10;76.60;;;;;;5057930;28;20177;-88
2021/08/21 00:08:37;;;;;;;19.30;13.63;;;20.20;76.50;;;;;;5055163;28;20459;-87
2021/08/21 00:11:03;;;;;;;18.90;13.02;;;20.10;76.70;;;;;;5055110;28;20176;-88
2021/08/21 00:13:29;;;;;;;18.73;12.70;;;20.10;76.80;;;;;;5055941;28;20201;-88
2021/08/21 00:15:55;;;;;;;19.65;11.73;;;20.10;76.90;;;;;;5019887;28;20185;-88
2021/08/21 00:18:21;;;;;;;29.17;13.90;;;20.00;76.90;;;;;;5035737;28;20197;-88
2021/08/21 00:20:47;;;;;;;18.20;13.48;;;20.00;77.00;;;;;;5035697;28;20201;-87
2021/08/21 00:23:13;;;;;;;18.40;13.47;;;20.00;77.10;;;;;;5034586;28;20205;-87
2021/08/21 00:25:39;;;;;;;22.73;13.73;;;19.90;77.20;;;;;;5036240;28;20512;-88
2021/08/21 00:28:05;;;;;;;15.60;11.00;;;19.80;77.40;;;;;;5035202;28;20699;-89
2021/08/21 00:30:30;;;;;;;20.48;12.55;;;19.80;77.70;;;;;;5036281;28;21060;-87
2021/08/21 00:32:56;;;;;;;16.07;11.10;;;19.70;77.80;;;;;;5034809;28;20206;-88
2021/08/21 00:35:22;;;;;;;18.57;13.37;;;19.60;78.00;;;;;;5035436;28;20181;-87
2021/08/21 00:37:50;;;;;;;21.83;13.48;;;19.60;78.40;;;;;;5036061;28;20174;-87
2021/08/21 00:40:17;;;;;;;17.50;12.70;;;19.50;78.70;;;;;;5034678;28;20205;-87
2021/08/21 00:42:43;;;;;;;20.48;12.68;;;19.60;78.80;;;;;;5034678;28;20699;-87
2021/08/21 00:45:09;;;;;;;19.50;13.25;;;19.60;78.80;;;;;;5042589;28;20185;-87
2021/08/21 00:47:35;;;;;;;20.85;13.40;;;19.70;78.50;;;;;;5056052;28;20596;-87
2021/08/21 00:50:01;;;;;;;24.43;12.80;;;19.70;78.20;;;;;;5054976;28;20205;-87
2021/08/21 00:52:29;;;;;;;16.03;12.40;;;19.70;78.20;;;;;;5053672;28;20200;-88
2021/08/21 00:54:56;;;;;;;19.33;12.70;;;19.80;78.00;;;;;;5054226;28;20169;-88
2021/08/21 00:57:23;;;;;;;19.00;13.13;;;19.70;78.10;;;;;;5054012;28;20173;-88
2021/08/21 00:59:51;;;;;;;17.35;12.50;;;19.70;78.00;;;;;;5054398;28;20173;-88
2021/08/21 01:02:18;;;;;;;19.17;13.05;;;19.70;77.90;;;;;;5054898;28;20205;-87
2021/08/21 01:04:46;;;;;;;19.65;11.98;;;19.70;77.80;;;;;;5054034;28;20184;-87
2021/08/21 01:07:20;;;;;;;23.17;14.82;;;19.70;77.80;;;;;;5054540;28;20185;-87
2021/08/21 01:09:46;;;;;;;19.30;12.90;;;19.70;77.80;;;;;;5054513;28;20215;-87
2021/08/21 01:12:14;;;;;;;19.15;12.10;;;19.70;77.70;;;;;;5054137;28;20334;-88
2021/08/21 01:14:41;;;;;;;16.88;12.40;;;19.60;77.40;;;;;;5054381;28;20616;-88
2021/08/21 01:17:07;;;;;;;22.63;14.25;;;19.60;77.60;;;;;;5054284;28;20280;-88
2021/08/21 01:19:37;;;;;;;27.20;14.37;;;19.60;77.70;;;;;;5055086;28;20262;-88
2021/08/21 01:22:05;;;;;;;27.48;13.40;;;19.60;77.70;;;;;;5053820;28;20192;-87
2021/08/21 01:24:31;;;;;;;20.83;12.38;;;19.60;77.70;;;;;;5053820;28;20181;-87
2021/08/21 01:26:57;;;;;;;19.50;12.95;;;19.60;77.70;;;;;;5054636;28;20165;-87
2021/08/21 01:29:24;;;;;;;21.53;13.53;;;19.50;77.70;;;;;;5054839;28;20207;-87
2021/08/21 01:31:50;;;;;;;19.30;13.75;;;19.50;77.80;;;;;;5053601;28;20559;-87
2021/08/21 01:34:17;;;;;;;27.52;16.30;;;19.40;77.90;;;;;;5054126;28;20177;-88
2021/08/21 01:36:46;;;;;;;27.55;16.70;;;19.40;78.10;;;;;;5054307;28;20173;-88
2021/08/21 01:39:14;;;;;;;25.42;13.45;;;19.40;78.20;;;;;;5055020;28;20181;-88
2021/08/21 01:41:42;;;;;;;22.95;14.15;;;19.40;78.20;;;;;;5053017;28;20188;-87
2021/08/21 01:44:13;;;;;;;22.48;14.55;;;19.30;78.50;;;;;;5054709;28;20567;-87
2021/08/21 01:46:39;;;;;;;28.92;14.75;;;19.30;78.60;;;;;;5034217;28;20633;-88
2021/08/21 01:49:09;;;;;;;22.98;15.25;;;19.30;78.60;;;;;;5033456;28;20205;-88
2021/08/21 01:51:36;;;;;;;20.73;14.40;;;19.30;78.70;;;;;;5033440;28;20526;-88
2021/08/21 01:54:02;;;;;;;23.90;14.50;;;19.30;78.60;;;;;;5033198;28;20316;-88
2021/08/21 01:56:28;;;;;;;22.65;15.68;;;19.20;78.60;;;;;;5033744;28;20182;-88
2021/08/21 01:58:54;;;;;;;23.93;14.90;;;19.20;78.60;;;;;;5045526;28;20185;-88
2021/08/21 02:01:21;;;;;;;24.80;16.30;;;19.30;78.70;;;;;;5053341;28;20430;-88
2021/08/21 02:03:47;;;;;;;30.02;16.27;;;19.20;78.60;;;;;;5058093;28;20443;-88
2021/08/21 02:06:14;;;;;;;22.33;14.63;;;19.20;78.70;;;;;;5057889;28;20189;-88
2021/08/21 02:08:40;;;;;;;22.95;15.15;;;19.30;78.70;;;;;;5058068;28;20215;-88
2021/08/21 02:11:06;;;;;;;25.60;14.82;;;19.30;78.70;;;;;;5058983;28;20226;-88
2021/08/21 02:13:32;;;;;;;22.52;14.88;;;19.30;78.70;;;;;;5059053;28;20200;-88
2021/08/21 02:15:58;;;;;;;24.77;15.45;;;19.30;78.70;;;;;;5059392;28;20190;-87
2021/08/21 02:18:24;;;;;;;26.50;15.18;;;19.30;78.80;;;;;;5058685;28;20196;-87
2021/08/21 02:20:50;;;;;;;25.37;16.23;;;19.30;78.80;;;;;;5058187;28;20177;-88
2021/08/21 02:23:16;;;;;;;24.50;15.20;;;19.30;78.80;;;;;;5058932;28;20228;-88
2021/08/21 02:25:41;;;;;;;26.80;16.20;;;19.30;78.90;;;;;;5061161;28;20312;-86
2021/08/21 02:28:09;;;;;;;23.70;15.90;;;19.40;78.80;;;;;;5061100;28;20180;-86
2021/08/21 02:30:40;;;;;;;21.65;14.32;;;19.40;78.50;;;;;;5057387;28;20691;-87
2021/08/21 02:33:06;;;;;;;22.00;14.00;;;19.30;78.40;;;;;;5057256;28;20293;-87
2021/08/21 02:35:33;;;;;;;19.98;13.18;;;19.30;78.50;;;;;;5058432;28;20184;-87
2021/08/21 02:38:00;;;;;;;23.30;15.45;;;19.30;78.50;;;;;;5061157;28;20199;-87
2021/08/21 02:40:26;;;;;;;20.90;13.65;;;19.30;78.70;;;;;;5058948;28;20212;-87
2021/08/21 02:42:51;;;;;;;21.65;15.55;;;19.30;78.60;;;;;;5057189;28;20530;-87
2021/08/21 02:45:18;;;;;;;20.93;15.77;;;19.40;78.50;;;;;;5058375;28;20188;-87
2021/08/21 02:47:44;;;;;;;22.85;15.15;;;19.40;78.30;;;;;;5057650;28;20192;-88
2021/08/21 02:50:10;;;;;;;18.73;13.93;;;19.40;78.90;;;;;;5058628;28;20205;-87
2021/08/21 02:52:36;;;;;;;19.67;14.07;;;19.50;78.10;;;;;;5057930;28;20200;-87
2021/08/21 02:55:03;;;;;;;23.47;16.50;;;19.40;78.20;;;;;;5057849;28;20181;-87
2021/08/21 02:57:29;;;;;;;23.83;16.80;;;19.30;78.40;;;;;;5057305;28;20187;-87
2021/08/21 02:59:55;;;;;;;28.10;17.77;;;19.30;78.40;;;;;;5055327;28;20208;-86
2021/08/21 03:02:20;;;;;;;22.70;15.63;;;19.50;78.10;;;;;;5036919;28;20297;-87
2021/08/21 03:04:46;;;;;;;23.67;16.70;;;19.50;78.10;;;;;;5038561;28;20181;-86
2021/08/21 03:07:12;;;;;;;23.93;16.13;;;19.40;77.90;;;;;;5037607;28;20182;-87
2021/08/21 03:09:38;;;;;;;28.53;18.30;;;19.40;78.00;;;;;;5037746;28;20255;-87
2021/08/21 03:12:04;;;;;;;25.80;18.90;;;19.30;77.90;;;;;;5037867;28;20583;-87
2021/08/21 03:14:29;;;;;;;39.65;20.48;;;19.30;78.00;;;;;;5044148;28;20173;-87
2021/08/21 03:16:55;;;;;;;25.17;18.33;;;19.20;78.00;;;;;;5057138;28;20188;-87
2021/08/21 03:19:21;;;;;;;33.70;18.13;;;19.20;78.20;;;;;;5058431;28;20177;-87
2021/08/21 03:21:48;;;;;;;29.73;17.75;;;19.20;78.10;;;;;;5058413;28;20216;-87
2021/08/21 03:24:14;;;;;;;24.60;16.90;;;19.20;78.10;;;;;;5059946;28;20252;-87
2021/08/21 03:26:39;;;;;;;27.73;17.97;;;19.20;78.00;;;;;;5058134;28;20294;-87
2021/08/21 03:29:05;;;;;;;26.67;18.07;;;19.10;78.00;;;;;;5059861;28;20691;-87
2021/08/21 03:31:31;;;;;;;26.83;19.37;;;19.00;78.20;;;;;;5059585;28;20740;-87
2021/08/21 03:33:57;;;;;;;27.47;18.10;;;18.80;78.60;;;;;;5061016;28;20522;-87
2021/08/21 03:36:22;;;;;;;28.67;17.97;;;18.80;79.10;;;;;;5061845;28;20698;-87
2021/08/21 03:38:48;;;;;;;30.60;18.20;;;18.90;79.30;;;;;;5044179;28;20424;-87
2021/08/21 03:41:14;;;;;;;32.23;17.67;;;18.90;79.10;;;;;;5060256;28;20439;-87
2021/08/21 03:43:40;;;;;;;24.40;17.00;;;19.00;78.80;;;;;;5062263;28;20193;-87
2021/08/21 03:46:06;;;;;;;23.92;16.48;;;19.00;78.60;;;;;;5084066;28;20232;-87
2021/08/21 03:48:32;;;;;;;32.60;17.13;;;18.90;78.40;;;;;;5097680;28;20169;-86
2021/08/21 03:50:57;;;;;;;26.33;16.58;;;18.80;78.40;;;;;;5096793;28;20161;-87
2021/08/21 03:53:23;;;;;;;25.00;16.17;;;18.70;78.70;;;;;;5079091;28;20196;-87
2021/08/21 03:55:49;;;;;;;21.27;15.70;;;18.60;78.80;;;;;;5060285;28;20639;-87
2021/08/21 03:58:16;;;;;;;25.10;17.27;;;18.70;78.90;;;;;;5077444;28;20415;-87
2021/08/21 04:00:42;;;;;;;24.58;16.42;;;18.60;78.70;;;;;;5076970;28;20185;-87
2021/08/21 04:03:08;;;;;;;28.92;15.52;;;18.60;78.70;;;;;;5077932;28;20383;-87
2021/08/21 04:05:34;;;;;;;25.23;16.83;;;18.50;79.00;;;;;;5077942;28;20659;-86
2021/08/21 04:08:00;;;;;;;24.33;15.20;;;18.50;79.20;;;;;;5079770;28;20181;-87
2021/08/21 04:10:26;;;;;;;29.00;18.03;;;18.50;79.20;;;;;;5079403;28;20875;-87
2021/08/21 04:12:52;;;;;;;21.00;16.60;;;18.60;79.20;;;;;;5078730;28;20208;-87
2021/08/21 04:15:17;;;;;;;30.53;18.00;;;18.60;79.00;;;;;;5051873;28;20950;-87
2021/08/21 04:17:43;;;;;;;26.65;18.45;;;18.50;78.90;;;;;;5039637;28;20189;-87
2021/08/21 04:20:10;;;;;;;27.60;18.60;;;18.50;79.00;;;;;;5042655;28;20182;-87
2021/08/21 04:22:36;;;;;;;24.67;17.02;;;18.50;79.00;;;;;;5051662;28;20197;-87
2021/08/21 04:25:05;;;;;;;28.25;17.75;;;18.50;78.90;;;;;;5052798;28;20197;-87
2021/08/21 04:27:30;;;;;;;23.88;17.23;;;18.60;78.90;;;;;;5049868;28;20188;-87
2021/08/21 04:29:56;;;;;;;31.17;17.03;;;18.60;79.00;;;;;;5038913;28;20304;-87
2021/08/21 04:32:22;;;;;;;29.20;19.40;;;18.50;78.80;;;;;;5037760;28;20198;-87
2021/08/21 04:34:48;;;;;;;27.00;17.57;;;18.50;79.00;;;;;;5043522;28;20188;-87
2021/08/21 04:37:14;;;;;;;30.88;18.63;;;18.50;79.20;;;;;;5064110;28;20419;-87
2021/08/21 04:39:39;;;;;;;27.87;18.27;;;18.50;79.30;;;;;;5060707;28;20196;-87
2021/08/21 04:42:08;;;;;;;28.03;18.70;;;18.50;79.40;;;;;;5063182;28;20231;-86
2021/08/21 04:44:34;;;;;;;23.90;17.10;;;18.40;79.40;;;;;;5064053;28;20259;-87
2021/08/21 04:46:59;;;;;;;25.30;16.80;;;18.40;79.50;;;;;;5069412;28;20180;-87
2021/08/21 04:49:25;;;;;;;33.87;18.63;;;18.40;79.60;;;;;;5076201;28;20288;-87
2021/08/21 04:51:51;;;;;;;27.50;17.53;;;18.40;79.70;;;;;;5073942;28;20483;-88
2021/08/21 04:54:17;;;;;;;24.57;16.90;;;18.30;79.80;;;;;;5074138;28;20189;-87
2021/08/21 04:56:42;;;;;;;25.20;19.03;;;18.40;80.00;;;;;;5061652;28;20636;-87
2021/08/21 04:59:08;;;;;;;30.00;16.97;;;18.50;80.50;;;;;;5062160;28;20231;-88
2021/08/21 05:01:34;;;;;;;28.20;18.30;;;18.60;79.40;;;;;;5060251;28;20184;-87
2021/08/21 05:04:00;;;;;;;28.33;19.07;;;18.60;79.30;;;;;;5072957;28;20192;-86
2021/08/21 05:06:25;;;;;;;31.17;18.00;;;18.50;79.20;;;;;;5077652;28;20237;-87
2021/08/21 05:08:51;;;;;;;32.37;19.10;;;18.60;79.30;;;;;;5078393;28;20207;-86
2021/08/21 05:11:17;;;;;;;25.03;17.83;;;18.60;79.20;;;;;;5077309;28;20416;-88
2021/08/21 05:13:43;;;;;;;33.20;18.20;;;18.60;79.10;;;;;;5077401;28;20185;-86
2021/08/21 05:16:09;;;;;;;22.37;15.93;;;18.80;78.80;;;;;;5077369;28;20208;-86
2021/08/21 05:18:38;;;;;;;24.20;17.30;;;18.80;78.60;;;;;;5077266;28;20192;-85
2021/08/21 05:21:09;;;;;;;24.10;18.20;;;18.90;78.20;;;;;;5077439;28;20161;-85
2021/08/21 05:23:35;;;;;;;23.63;16.63;;;19.00;78.00;;;;;;5077760;28;20188;-85
2021/08/21 05:26:01;;;;;;;23.67;17.10;;;19.10;77.90;;;;;;5077032;28;20169;-87
2021/08/21 05:28:28;;;;;;;22.30;15.43;;;19.20;77.50;;;;;;5077103;28;20169;-85
2021/08/21 05:30:54;;;;;;;23.63;16.63;;;19.20;77.10;;;;;;5077073;28;20219;-85
2021/08/21 05:33:21;;;;;;;27.25;15.77;;;19.30;76.80;;;;;;5076511;28;20185;-86
2021/08/21 05:35:47;;;;;;;19.27;14.70;;;19.50;77.10;;;;;;5076371;28;20240;-86
2021/08/21 05:38:12;;;;;;;17.65;13.80;;;19.90;76.60;;;;;;5075975;28;20185;-87
2021/08/21 05:40:39;;;;;;;17.90;14.30;;;20.30;75.30;;;;;;5070729;28;20502;-87
2021/08/21 05:43:05;;;;;;;20.33;14.25;;;20.40;73.90;;;;;;5054795;28;20444;-87
2021/08/21 05:45:31;;;;;;;24.15;14.60;;;20.40;73.10;;;;;;5055291;28;20268;-87
2021/08/21 05:47:57;;;;;;;17.80;14.03;;;20.40;72.60;;;;;;5055916;28;20201;-87
2021/08/21 05:50:23;;;;;;;18.70;14.63;;;20.50;73.00;;;;;;5053553;28;20612;-87
2021/08/21 05:52:50;;;;;;;17.80;13.73;;;20.70;72.10;;;;;;5054273;28;20193;-87
2021/08/21 05:55:16;;;;;;;19.98;12.98;;;20.70;71.50;;;;;;5054075;28;20174;-87
2021/08/21 05:57:42;;;;;;;18.75;13.07;;;20.60;71.30;;;;;;5053903;28;20652;-87
2021/08/21 06:00:09;;;;;;;18.57;13.10;;;20.50;71.30;;;;;;5057942;28;20235;-87
2021/08/21 06:02:35;;;;;;;18.42;13.65;;;20.50;71.40;;;;;;5056763;28;20431;-87
2021/08/21 06:05:00;;;;;;;17.93;13.53;;;20.40;71.50;;;;;;5058363;28;20169;-87
2021/08/21 06:07:28;;;;;;;23.30;13.60;;;20.50;72.20;;;;;;5057327;28;20179;-87
2021/08/21 06:09:54;;;;;;;17.73;12.97;;;20.90;72.00;;;;;;5055983;28;20664;-88
2021/08/21 06:12:19;;;;;;;18.20;13.10;;;21.30;71.10;;;;;;5055740;28;20436;-87
2021/08/21 06:14:45;;;;;;;17.40;12.73;;;21.60;70.10;;;;;;5056557;28;20173;-88
2021/08/21 06:17:11;;;;;;;16.00;11.97;;;22.00;68.80;;;;;;5057283;28;20185;-88
2021/08/21 06:19:37;;;;;;;15.23;10.70;;;22.40;67.70;;;;;;5059718;28;20177;-88
2021/08/21 06:22:05;;;;;;;17.30;12.77;;;22.60;66.50;;;;;;5057563;28;20439;-88
2021/08/21 06:24:31;;;;;;;14.13;11.27;;;23.00;65.70;;;;;;5056601;28;20910;-88
2021/08/21 06:26:57;;;;;;;13.43;10.67;;;23.20;64.30;;;;;;5058132;28;20412;-88
2021/08/21 06:29:22;;;;;;;13.57;11.10;;;23.50;63.60;;;;;;5055450;28;20541;-88
2021/08/21 06:31:48;;;;;;;17.20;11.27;;;23.70;63.00;;;;;;5062678;28;20192;-87
2021/08/21 06:34:14;;;;;;;12.47;11.10;;;23.90;62.50;;;;;;5056660;28;20189;-87
2021/08/21 06:36:39;;;;;;;13.63;12.17;;;24.10;61.10;;;;;;5059218;28;20637;-87
2021/08/21 06:39:05;;;;;;;19.83;12.43;;;24.20;61.00;;;;;;5058855;28;20185;-87
2021/08/21 06:41:31;;;;;;;21.17;11.70;;;24.40;60.70;;;;;;5057698;28;20238;-87
2021/08/21 06:43:57;;;;;;;15.13;10.30;;;24.50;60.10;;;;;;5057963;28;20526;-87
2021/08/21 06:46:23;;;;;;;12.53;10.70;;;24.50;60.10;;;;;;5057282;28;20185;-86
2021/08/21 06:48:48;;;;;;;12.53;11.10;;;24.40;60.00;;;;;;5059253;28;20467;-87
2021/08/21 06:51:14;;;;;;;14.03;10.60;;;24.40;60.20;;;;;;5060124;28;20177;-88
2021/08/21 06:53:40;;;;;;;12.47;10.57;;;24.20;60.60;;;;;;5060475;28;20193;-87
2021/08/21 06:56:06;;;;;;;11.17;9.37;;;24.10;61.20;;;;;;5059770;28;20177;-87
2021/08/21 06:58:33;;;;;;;13.03;10.90;;;24.00;61.50;;;;;;5062111;28;20183;-87
2021/08/21 07:00:59;;;;;;;16.80;8.83;;;23.90;61.70;;;;;;5043712;28;20771;-87
2021/08/21 07:03:25;;;;;;;17.60;9.60;;;23.70;62.90;;;;;;5059727;28;20471;-87
2021/08/21 07:05:51;;;;;;;19.07;9.30;;;23.70;62.40;;;;;;5060808;28;20416;-87
2021/08/21 07:08:17;;;;;;;10.90;8.80;;;23.60;62.80;;;;;;5059533;28;20462;-87
2021/08/21 07:10:44;;;;;;;15.90;10.60;;;23.50;63.00;;;;;;5058209;28;20479;-88
2021/08/21 07:13:09;;;;;;;10.10;9.10;;;23.40;63.40;;;;;;5057753;28;20840;-87
2021/08/21 07:15:35;;;;;;;15.40;9.67;;;23.40;63.70;;;;;;5042293;28;20420;-87
2021/08/21 07:18:01;;;;;;;12.87;9.20;;;23.40;63.60;;;;;;5037942;28;20266;-87
2021/08/21 07:20:27;;;;;;;12.03;9.20;;;23.40;64.40;;;;;;5039256;28;20417;-87
2021/08/21 07:22:53;;;;;;;12.20;9.23;;;23.30;63.70;;;;;;5038697;28;20480;-87
2021/08/21 07:25:18;;;;;;;12.20;8.93;;;23.20;63.90;;;;;;5039592;28;20186;-88
2021/08/21 07:27:44;;;;;;;13.87;9.87;;;23.20;64.40;;;;;;5042617;28;20238;-87
2021/08/21 07:30:10;;;;;;;15.63;8.50;;;23.20;64.70;;;;;;5056270;28;20468;-88
2021/08/21 07:32:36;;;;;;;14.73;8.70;;;23.10;64.90;;;;;;5055261;28;20194;-88
2021/08/21 07:35:03;;;;;;;8.40;7.47;;;23.10;65.10;;;;;;5055340;28;20416;-87
2021/08/21 07:37:30;;;;;;;9.10;7.60;;;23.10;65.10;;;;;;5064190;28;20169;-87
2021/08/21 07:39:56;;;;;;;11.90;9.30;;;23.20;65.00;;;;;;5075157;28;20441;-87
2021/08/21 07:42:23;;;;;;;12.80;9.17;;;23.30;65.00;;;;;;5074919;28;20535;-88
2021/08/21 07:44:48;;;;;;;20.43;9.60;;;23.30;65.50;;;;;;5081239;28;20423;-87
2021/08/21 07:47:14;;;;;;;11.10;9.90;;;23.50;65.30;;;;;;5095846;28;20437;-88
2021/08/21 07:49:40;;;;;;;9.80;8.77;;;23.60;64.80;;;;;;5098785;28;20207;-85
2021/08/21 07:52:07;;;;;;;10.50;8.60;;;23.70;64.50;;;;;;5086619;28;20193;-88
2021/08/21 07:54:32;;;;;;;10.60;7.50;;;23.70;64.60;;;;;;5078264;28;20181;-88
2021/08/21 07:56:58;;;;;;;8.03;6.90;;;23.80;64.40;;;;;;5078221;28;20443;-87
2021/08/21 07:59:24;;;;;;;9.87;7.73;;;23.80;64.00;;;;;;5077148;28;20185;-87
2021/08/21 08:01:49;;;;;;;9.30;8.17;;;23.90;64.00;;;;;;5077867;28;20171;-87
2021/08/21 08:04:15;;;;;;;7.30;6.10;;;23.90;63.70;;;;;;5079061;28;20190;-88
2021/08/21 08:06:41;;;;;;;11.43;5.37;;;23.70;62.60;;;;;;5078901;28;20216;-85
2021/08/21 08:09:07;;;;;;;10.10;5.83;;;23.50;62.90;;;;;;5078800;28;20228;-85
2021/08/21 08:11:32;;;;;;;5.73;4.20;;;23.30;62.40;;;;;;5078316;28;20181;-87
2021/08/21 08:13:58;;;;;;;5.17;4.77;;;23.10;62.80;;;;;;5078624;28;20193;-86
2021/08/21 08:16:24;;;;;;;7.33;4.77;;;23.20;62.50;;;;;;5079415;28;20184;-86
2021/08/21 08:18:50;;;;;;;6.73;4.10;;;23.40;61.90;;;;;;5078592;28;20251;-86
2021/08/21 08:21:18;;;;;;;3.90;3.47;;;23.60;61.70;;;;;;5078375;28;20185;-89
2021/08/21 08:23:45;;;;;;;4.80;3.67;;;23.90;61.00;;;;;;5078025;28;20185;-88
2021/08/21 08:26:10;;;;;;;4.23;3.83;;;24.00;60.20;;;;;;5079452;28;20439;-88
2021/08/21 08:28:36;;;;;;;4.90;3.70;;;24.30;59.80;;;;;;5059033;28;20903;-88
2021/08/21 08:31:02;;;;;;;3.47;3.17;;;24.50;58.90;;;;;;5054789;28;20543;-87
2021/08/21 08:33:28;;;;;;;4.37;3.97;;;24.70;58.40;;;;;;5055920;28;20643;-88
2021/08/21 08:35:53;;;;;;;4.20;3.40;;;24.90;57.90;;;;;;5055559;28;20181;-88
2021/08/21 08:38:20;;;;;;;4.37;3.20;;;25.10;57.40;;;;;;5056003;28;20197;-88
2021/08/21 08:40:49;;;;;;;3.07;2.77;;;25.30;57.00;;;;;;5061838;28;20181;-89
2021/08/21 08:43:15;;;;;;;2.93;2.73;;;25.40;55.90;;;;;;5066727;28;20478;-88
2021/08/21 08:45:42;;;;;;;6.00;2.67;;;25.20;54.50;;;;;;5077513;28;20426;-88
2021/08/21 08:48:08;;;;;;;3.83;2.87;;;25.30;54.90;;;;;;5086149;28;20437;-89
2021/08/21 08:50:34;;;;;;;3.20;2.90;;;25.20;54.60;;;;;;5075081;28;20459;-89
2021/08/21 08:53:00;;;;;;;3.23;2.93;;;25.10;54.70;;;;;;5073989;28;20438;-89
2021/08/21 08:55:26;;;;;;;3.43;3.23;;;25.10;55.10;;;;;;5073832;28;20422;-89
2021/08/21 08:57:53;;;;;;;3.87;2.50;;;25.10;55.40;;;;;;5074130;28;20419;-89
2021/08/21 09:00:27;;;;;;;2.50;2.30;;;24.90;54.90;;;;;;5076034;28;20898;-89
2021/08/21 09:02:56;;;;;;;6.17;2.37;;;24.40;55.50;;;;;;5078387;28;20942;-89
2021/08/21 09:05:24;;;;;;;4.40;3.13;;;24.50;56.70;;;;;;5073802;28;20423;-89
2021/08/21 09:07:55;;;;;;;3.00;2.80;;;24.50;56.70;;;;;;5073744;28;20427;-89
2021/08/21 09:10:29;;;;;;;2.83;2.50;;;24.70;56.10;;;;;;5074082;28;20447;-88
2021/08/21 09:13:12;;;;;;;4.43;2.67;;;24.70;55.70;;;;;;5073744;28;20449;-89
2021/08/21 09:15:47;;;;;;;3.37;3.07;;;24.70;55.60;;;;;;5075397;28;20411;-89
2021/08/21 09:18:25;;;;;;;3.40;2.60;;;24.70;55.50;;;;;;5078343;28;20504;-89
2021/08/21 09:20:55;;;;;;;4.47;2.60;;;24.70;55.30;;;;;;5083601;28;20407;-87
2021/08/21 09:23:33;;;;;;;3.50;3.20;;;24.60;55.50;;;;;;5088039;28;20443;-87
2021/08/21 09:26:10;;;;;;;2.83;2.53;;;24.80;55.90;;;;;;5075130;28;20599;-88
2021/08/21 09:28:38;;;;;;;3.80;2.80;;;24.80;55.50;;;;;;5074660;28;20411;-88
2021/08/21 09:31:18;;;;;;;2.90;2.30;;;24.80;54.90;;;;;;5073207;28;20779;-89
2021/08/21 09:33:54;;;;;;;5.03;2.80;;;24.80;54.40;;;;;;5073405;28;20438;-88
2021/08/21 09:36:31;;;;;;;2.50;2.00;;;24.70;54.80;;;;;;5073410;28;20778;-88
2021/08/21 09:38:59;;;;;;;7.20;2.47;;;24.80;54.80;;;;;;5074332;28;20423;-88
2021/08/21 09:41:25;;;;;;;2.30;2.10;;;24.80;54.20;;;;;;5073413;28;20423;-89
2021/08/21 09:44:09;;;;;;;6.00;2.00;;;24.90;54.50;;;;;;5073085;28;20809;-88
2021/08/21 09:46:37;;;;;;;2.17;2.00;;;25.10;54.70;;;;;;5075012;28;20406;-88
2021/08/21 09:49:07;;;;;;;4.60;2.30;;;25.20;53.90;;;;;;5073415;28;20458;-88
2021/08/21 09:51:46;;;;;;;2.70;2.20;;;25.40;53.00;;;;;;5073280;28;20830;-87
2021/08/21 09:54:16;;;;;;;4.17;3.00;;;25.50;52.90;;;;;;5073942;28;20409;-88
2021/08/21 09:56:55;;;;;;;2.43;2.23;;;25.60;52.50;;;;;;5075278;28;20870;-88
2021/08/21 09:59:42;;;;;;;1.90;1.80;;;25.80;51.60;;;;;;5073669;28;20769;-88
2021/08/21 10:02:08;;;;;;;2.83;2.63;;;25.80;50.60;;;;;;5073743;28;20453;-88
2021/08/21 10:04:35;;;;;;;2.73;2.13;;;25.90;50.40;;;;;;5073261;28;20473;-88
2021/08/21 10:07:08;;;;;;;1.90;1.80;;;25.90;48.90;;;;;;5073928;28;20418;-88
2021/08/21 10:09:38;;;;;;;2.23;2.03;;;26.00;49.70;;;;;;5073931;28;20894;-88
2021/08/21 10:12:05;;;;;;;1.80;1.70;;;26.20;49.50;;;;;;5073376;28;20439;-88
2021/08/21 10:14:33;;;;;;;2.63;2.00;;;25.90;47.80;;;;;;5075249;28;20898;-88
2021/08/21 10:17:00;;;;;;;1.83;1.73;;;25.80;48.50;;;;;;5076746;28;20463;-88
2021/08/21 10:19:26;;;;;;;2.90;2.23;;;25.90;48.00;;;;;;5085605;28;20414;-87
2021/08/21 10:21:58;;;;;;;3.33;1.80;;;26.00;48.20;;;;;;5084274;28;20416;-88
2021/08/21 10:24:40;;;;;;;3.43;2.63;;;26.00;47.00;;;;;;5085800;28;20206;-88
2021/08/21 10:27:21;;;;;;;2.20;2.00;;;26.30;47.90;;;;;;5077779;28;20441;-88
2021/08/21 10:30:12;;;;;;;1.77;1.67;;;26.40;48.20;;;;;;5077172;28;20871;-89
2021/08/21 10:32:57;;;;;;;2.53;1.90;;;26.60;47.10;;;;;;5077581;28;20435;-88
2021/08/21 10:35:43;;;;;;;2.20;1.77;;;26.60;46.10;;;;;;5078184;28;20848;-88
2021/08/21 10:38:31;;;;;;;2.33;1.93;;;26.70;46.30;;;;;;5064084;28;20756;-88
2021/08/21 10:40:58;;;;;;;3.10;1.97;;;27.00;46.60;;;;;;5057182;28;20430;-89
2021/08/21 10:43:50;;;;;;;4.90;2.50;;;27.20;45.60;;;;;;5057836;28;20481;-88
2021/08/21 10:46:36;;;;;;;2.10;2.00;;;27.20;44.80;;;;;;5057893;28;20419;-88
2021/08/21 10:49:04;;;;;;;2.17;2.00;;;27.40;43.60;;;;;;5050463;28;20496;-88
2021/08/21 10:51:48;;;;;;;4.57;2.00;;;27.70;43.60;;;;;;5050101;28;20433;-88
2021/08/21 10:54:26;;;;;;;1.90;1.70;;;27.60;43.40;;;;;;5053901;28;20503;-87
2021/08/21 10:56:56;;;;;;;5.53;1.90;;;27.40;43.20;;;;;;5080352;28;20414;-87
2021/08/21 10:59:42;;;;;;;2.40;1.70;;;27.60;42.20;;;;;;5080890;28;20395;-88
2021/08/21 11:02:28;;;;;;;1.70;1.60;;;27.70;42.60;;;;;;5079473;28;20437;-88
2021/08/21 11:04:55;;;;;;;2.17;2.07;;;27.60;42.50;;;;;;5080823;28;20389;-87
2021/08/21 11:07:30;;;;;;;2.83;2.10;;;27.60;42.70;;;;;;5079820;28;20401;-85
2021/08/21 11:10:21;;;;;;;2.63;1.73;;;27.70;42.70;;;;;;5079714;28;20486;-86
2021/08/21 11:12:50;;;;;;;1.90;1.80;;;27.70;41.90;;;;;;5079343;28;20439;-86
2021/08/21 11:15:19;;;;;;;2.10;1.90;;;27.50;42.30;;;;;;5080462;28;20416;-88
2021/08/21 11:17:45;;;;;;;1.60;1.50;;;27.70;42.30;;;;;;5078551;28;20543;-87
2021/08/21 11:20:33;;;;;;;2.90;1.97;;;27.80;43.00;;;;;;5076895;28;20454;-88
2021/08/21 11:23:05;;;;;;;1.90;1.73;;;27.90;42.30;;;;;;5070381;28;20478;-88
2021/08/21 11:25:32;;;;;;;1.90;1.70;;;27.70;41.70;;;;;;5055972;28;20412;-87
2021/08/21 11:28:06;;;;;;;2.60;2.10;;;27.70;42.40;;;;;;5056621;28;20412;-88
2021/08/21 11:30:36;;;;;;;3.30;2.10;;;27.80;42.30;;;;;;5055693;28;20470;-88
2021/08/21 11:33:08;;;;;;;1.73;1.63;;;27.90;42.50;;;;;;5057979;28;20420;-88
2021/08/21 11:35:49;;;;;;;2.40;2.17;;;27.70;43.40;;;;;;5055337;28;20776;-88
2021/08/21 11:38:17;;;;;;;2.57;2.20;;;27.80;42.20;;;;;;5057649;28;20518;-88
2021/08/21 11:40:49;;;;;;;2.47;2.27;;;27.40;42.50;;;;;;5056937;28;20483;-88
2021/08/21 11:43:17;;;;;;;3.00;2.10;;;27.30;42.90;;;;;;5057077;28;20454;-88
2021/08/21 11:45:44;;;;;;;2.40;2.00;;;27.60;43.60;;;;;;5056963;28;20420;-88
2021/08/21 11:48:10;;;;;;;2.27;2.07;;;27.80;42.90;;;;;;5060084;28;20483;-88
2021/08/21 11:50:47;;;;;;;2.70;2.10;;;27.70;43.10;;;;;;5059118;28;20467;-88
2021/08/21 11:53:18;;;;;;;2.77;1.83;;;27.90;43.30;;;;;;5064772;28;20462;-88
2021/08/21 11:55:45;;;;;;;2.30;2.10;;;27.70;42.90;;;;;;5068131;28;20411;-88
2021/08/21 11:58:12;;;;;;;2.40;2.20;;;27.90;43.10;;;;;;5071964;28;20438;-88
2021/08/21 12:00:40;;;;;;;3.30;1.93;;;28.20;43.10;;;;;;5056284;28;20493;-88
2021/08/21 12:03:09;;;;;;;2.40;2.20;;;28.10;42.00;;;;;;5060606;28;20428;-87
2021/08/21 12:05:38;;;;;;;2.50;2.30;;;28.00;42.40;;;;;;5076836;28;20407;-87
2021/08/21 12:08:22;;;;;;;3.10;2.53;;;28.10;42.80;;;;;;5061180;28;20403;-87
2021/08/21 12:10:54;;;;;;;2.10;1.90;;;28.10;42.70;;;;;;5057337;28;20433;-87
2021/08/21 12:13:40;;;;;;;2.67;2.03;;;28.30;42.10;;;;;;5055643;28;20432;-87
2021/08/21 12:16:06;;;;;;;2.50;2.30;;;28.20;41.60;;;;;;5036145;28;20424;-87
2021/08/21 12:18:34;;;;;;;2.43;2.17;;;28.20;42.30;;;;;;5035328;28;20432;-87
2021/08/21 12:21:01;;;;;;;3.77;2.70;;;28.10;42.20;;;;;;5034649;28;20429;-88
2021/08/21 12:23:27;;;;;;;2.90;2.20;;;28.30;41.70;;;;;;5034067;28;20934;-88
2021/08/21 12:26:03;;;;;;;2.80;2.20;;;28.20;42.30;;;;;;5034922;28;20935;-88
2021/08/21 12:28:38;;;;;;;2.53;2.43;;;28.30;41.90;;;;;;5035924;28;20412;-88
2021/08/21 12:31:06;;;;;;;3.00;2.40;;;28.40;41.70;;;;;;5036245;28;20437;-89
2021/08/21 12:33:41;;;;;;;2.40;2.20;;;28.40;42.10;;;;;;5035742;28;20437;-89
2021/08/21 12:36:08;;;;;;;2.10;1.83;;;28.40;42.00;;;;;;5034567;28;20412;-89
2021/08/21 12:38:34;;;;;;;2.20;2.10;;;28.00;42.60;;;;;;5051261;28;20432;-88
2021/08/21 12:41:08;;;;;;;3.37;2.13;;;28.10;43.00;;;;;;5054953;28;20473;-88